Observation data for Silverton on 04/23/2019      Previous  Date  Next       Current Mesonet Observations  Soil Data  Daily Summary Page  Observations in Plain Language
KSVS 230500Z 01013KT 12/11 A3008 RMK A01 T01200114  RH  100%=      5-min Rain = 0
KSVS 230505Z 01012KT 12/11 A3008 RMK A01 T01200114  RH  100%=      5-min Rain = 0
KSVS 230510Z 01013KT 12/12 A3008 RMK A01 T01200115  RH  100%=      5-min Rain = 0
KSVS 230515Z 01013KT 12/12 A3008 RMK A01 T01200115  RH  100%=      5-min Rain = 0
KSVS 230520Z 01011KT 12/12 A3008 RMK A01 T01200115  RH  100%=      5-min Rain = 0
KSVS 230525Z 01013KT 12/11 A3008 RMK A01 T01200114  RH  100%=      5-min Rain = 0
KSVS 230530Z 01012KT 12/11 A3008 RMK A01 T01200114  RH  100%=      5-min Rain = 0
KSVS 230535Z 01013KT 12/11 A3008 RMK A01 T01200114  RH  100%=      5-min Rain = 0
KSVS 230540Z 01014KT 12/12 A3007 RMK A01 T01200115  RH  100%=      5-min Rain = 0
KSVS 230545Z 01014KT 12/12 A3006 RMK A01 T01200115  RH  100%=      5-min Rain = 0
KSVS 230550Z 01015KT 12/12 A3006 RMK A01 T01210115  RH  100%=      5-min Rain = 0
KSVS 230555Z 01016KT 12/12 A3006 RMK A01 T01210115  RH  100%=      5-min Rain = 0
KSVS 230600Z 01017KT 12/12 A3005 RMK A01 T01210115  RH  100%=      5-min Rain = 0
KSVS 230605Z 01016KT 12/12 A3006 RMK A01 T01210115  RH  100%=      5-min Rain = 0
KSVS 230610Z 01015KT 12/12 A3005 RMK A01 T01210115  RH  100%=      5-min Rain = 0
KSVS 230615Z 01014KT 12/12 A3005 RMK A01 T01210115  RH  100%=      5-min Rain = 0
KSVS 230620Z 01014KT 12/12 A3006 RMK A01 T01210115  RH  100%=      5-min Rain = 0
KSVS 230625Z 01014G19KT 12/12 A3006 RMK A01 T01210115  RH  100%=      5-min Rain = 0
KSVS 230630Z 02013G19KT 12/12 A3006 RMK A01 T01210115  RH  099%=      5-min Rain = 0
KSVS 230635Z 01012KT 12/12 A3007 RMK A01 T01220115  RH  099%=      5-min Rain = 0
KSVS 230640Z 01011KT 12/12 A3007 RMK A01 T01220115  RH  099%=      5-min Rain = 0
KSVS 230645Z 02010KT 12/12 A3008 RMK A01 T01220115  RH  099%=      5-min Rain = 0.01
KSVS 230650Z 03007KT 12/12 A3009 RMK A01 T01220115  RH  099%=      5-min Rain = 0.01
KSVS 230655Z 03008KT 12/12 A3009 RMK A01 T01210115  RH  100%=      5-min Rain = 0.03
KSVS 230700Z 01011KT 12/12 A3009 RMK A01 T01210115  RH  100%=      5-min Rain = 0.02
KSVS 230705Z 02013KT 12/12 A3007 RMK A01 T01200115  RH  100%=      5-min Rain = 0.02
KSVS 230710Z 03012KT 12/11 A3006 RMK A01 T01200114  RH  100%=      5-min Rain = 0.04
KSVS 230715Z 04011KT 12/11 A3005 RMK A01 T01200114  RH  100%=      5-min Rain = 0.01
KSVS 230720Z 04012KT 12/11 A3005 RMK A01 T01200114  RH  100%=      5-min Rain = 0.01
KSVS 230725Z 03012KT 12/11 A3005 RMK A01 T01200114  RH  100%=      5-min Rain = 0
KSVS 230730Z 03011G16KT 12/11 A3005 RMK A01 T01190114  RH  100%=      5-min Rain = 0
KSVS 230735Z 03011KT 12/11 A3005 RMK A01 T01190114  RH  100%=      5-min Rain = 0
KSVS 230740Z 03010G15KT 12/11 A3005 RMK A01 T01200114  RH  100%=      5-min Rain = 0
KSVS 230745Z 03011KT 12/11 A3005 RMK A01 T01200114  RH  100%=      5-min Rain = 0
KSVS 230750Z 03010KT 12/12 A3005 RMK A01 T01200115  RH  100%=      5-min Rain = 0
KSVS 230755Z 02011G16KT 12/11 A3005 RMK A01 T01200114  RH  100%=      5-min Rain = 0
KSVS 230800Z 02012KT 12/11 A3004 RMK A01 T01200114  RH  100%=      5-min Rain = 0
KSVS 230805Z 02012KT 12/11 A3003 RMK A01 T01200114  RH  100%=      5-min Rain = 0
KSVS 230810Z 02012G17KT 12/11 A3003 RMK A01 T01190114  RH  100%=      5-min Rain = 0
KSVS 230815Z 02013KT 12/11 A3003 RMK A01 T01190114  RH  100%=      5-min Rain = 0
KSVS 230820Z 02013G18KT 12/11 A3002 RMK A01 T01190114  RH  100%=      5-min Rain = 0.01
KSVS 230825Z 02012G17KT 12/11 A3002 RMK A01 T01190114  RH  100%=      5-min Rain = 0
KSVS 230830Z 01012G17KT 12/11 A3003 RMK A01 T01190114  RH  100%=      5-min Rain = 0
KSVS 230835Z 00011KT 12/11 A3004 RMK A01 T01200114  RH  100%=      5-min Rain = 0
KSVS 230840Z 36010KT 12/11 A3004 RMK A01 T01200114  RH  100%=      5-min Rain = 0.03
KSVS 230845Z 01011G16KT 12/11 A3004 RMK A01 T01200114  RH  100%=      5-min Rain = 0.03
KSVS 230850Z 02011KT 12/12 A3004 RMK A01 T01200115  RH  100%=      5-min Rain = 0.02
KSVS 230855Z 02009KT 12/12 A3004 RMK A01 T01200115  RH  100%=      5-min Rain = 0.01
KSVS 230900Z 02010KT 12/12 A3003 RMK A01 T01200115  RH  100%=      5-min Rain = 0.01
KSVS 230905Z 02009G14KT 12/12 A3003 RMK A01 T01200115  RH  100%=      5-min Rain = 0.02
KSVS 230910Z 02009KT 12/12 A3003 RMK A01 T01200115  RH  100%=      5-min Rain = 0
KSVS 230915Z 03010KT 12/12 A3002 RMK A01 T01200115  RH  100%=      5-min Rain = 0.01
KSVS 230920Z 03012KT 12/12 A3002 RMK A01 T01210115  RH  100%=      5-min Rain = 0.01
KSVS 230925Z 03012KT 12/12 A3002 RMK A01 T01210115  RH  100%=      5-min Rain = 0.01
KSVS 230930Z 02012KT 12/12 A3001 RMK A01 T01210115  RH  100%=      5-min Rain = 0.01
KSVS 230935Z 01010G15KT 12/12 A3002 RMK A01 T01210115  RH  100%=      5-min Rain = 0
KSVS 230940Z 35007KT 12/12 A3005 RMK A01 T01210116  RH  100%=      5-min Rain = 0
KSVS 230945Z 35006KT 12/12 A3005 RMK A01 T01210116  RH  100%=      5-min Rain = 0
KSVS 230950Z 01008KT 12/12 A3005 RMK A01 T01220116  RH  100%=      5-min Rain = 0.01
KSVS 230955Z 01009KT 12/12 A3005 RMK A01 T01210116  RH  100%=      5-min Rain = 0.02
KSVS 231000Z 01008KT 12/12 A3004 RMK A01 T01210116  RH  100%=      5-min Rain = 0.01
KSVS 231005Z 02008KT 12/12 A3004 RMK A01 T01210116  RH  100%=      5-min Rain = 0.01
KSVS 231010Z 02009KT 12/12 A3004 RMK A01 T01210116  RH  100%=      5-min Rain = 0
KSVS 231015Z 01012KT 12/12 A3003 RMK A01 T01210116  RH  100%=      5-min Rain = 0.01
KSVS 231020Z 01012KT 12/12 A3002 RMK A01 T01210116  RH  100%=      5-min Rain = 0
KSVS 231025Z 02013KT 12/12 A3001 RMK A01 T01210116  RH  100%=      5-min Rain = 0
KSVS 231030Z 03014KT 12/12 A30 RMK A01 T01210116  RH  100%=      5-min Rain = 0.01
KSVS 231035Z 03013KT 12/12 A3001 RMK A01 T01210116  RH  100%=      5-min Rain = 0
KSVS 231040Z 03012G17KT 12/12 A3002 RMK A01 T01210116  RH  100%=      5-min Rain = 0
KSVS 231045Z 03012G17KT 12/12 A3003 RMK A01 T01210116  RH  100%=      5-min Rain = 0
KSVS 231050Z 03008KT 12/12 A3004 RMK A01 T01210116  RH  100%=      5-min Rain = 0
KSVS 231055Z 03006KT 12/12 A3006 RMK A01 T01210116  RH  100%=      5-min Rain = 0
KSVS 231100Z 03006KT 12/12 A3007 RMK A01 T01210116  RH  100%=      5-min Rain = 0.01
KSVS 231105Z 04006KT 12/12 A3007 RMK A01 T01210116  RH  100%=      5-min Rain = 0.02
KSVS 231110Z 05004KT 12/12 A3007 RMK A01 T01210116  RH  100%=      5-min Rain = 0.04
KSVS 231115Z 05004KT 12/12 A3007 RMK A01 T01210116  RH  100%=      5-min Rain = 0.03
KSVS 231120Z 06004KT 12/12 A3008 RMK A01 T01210116  RH  100%=      5-min Rain = 0.03
KSVS 231125Z 08003KT 12/12 A3008 RMK A01 T01210116  RH  100%=      5-min Rain = 0.03
KSVS 231130Z 04003KT 12/12 A3007 RMK A01 T01210116  RH  100%=      5-min Rain = 0.03
KSVS 231135Z 01006KT 12/12 A3007 RMK A01 T01210116  RH  100%=      5-min Rain = 0.02
KSVS 231140Z 00010KT 12/12 A3006 RMK A01 T01210115  RH  100%=      5-min Rain = 0.03
KSVS 231145Z 01015KT 12/12 A3003 RMK A01 T01200115  RH  100%=      5-min Rain = 0.01
KSVS 231150Z 35015KT 12/12 A3002 RMK A01 T01200115  RH  100%=      5-min Rain = 0.01
KSVS 231155Z 35014KT 12/12 A3004 RMK A01 T01200115  RH  100%=      5-min Rain = 0.01
KSVS 231200Z 36015KT 12/12 A3003 RMK A01 T01200115  RH  100%=      5-min Rain = 0
KSVS 231205Z 01012G18KT 12/12 A3003 RMK A01 T01200115  RH  100%=      5-min Rain = 0
KSVS 231210Z 00011KT 12/12 A3005 RMK A01 T01210115  RH  100%=      5-min Rain = 0
KSVS 231215Z 02011KT 12/12 A3005 RMK A01 T01210115  RH  100%=      5-min Rain = 0
KSVS 231220Z 03012KT 12/12 A3004 RMK A01 T01210115  RH  100%=      5-min Rain = 0
KSVS 231225Z 03011KT 12/12 A3005 RMK A01 T01210116  RH  100%=      5-min Rain = 0
KSVS 231230Z 05010KT 12/12 A3005 RMK A01 T01220116  RH  100%=      5-min Rain = 0
KSVS 231235Z 04010KT 12/12 A3006 RMK A01 T01220117  RH  100%=      5-min Rain = 0
KSVS 231240Z 04010KT 12/12 A3006 RMK A01 T01220117  RH  100%=      5-min Rain = 0
KSVS 231245Z 03008KT 12/12 A3008 RMK A01 T01220117  RH  100%=      5-min Rain = 0
KSVS 231250Z 02008G13KT 12/12 A3008 RMK A01 T01220117  RH  100%=      5-min Rain = 0
KSVS 231255Z 02009KT 12/12 A3008 RMK A01 T01220117  RH  100%=      5-min Rain = 0
KSVS 231300Z 02010KT 12/12 A3008 RMK A01 T01220117  RH  100%=      5-min Rain = 0
KSVS 231305Z 02009KT 12/12 A3008 RMK A01 T01230117  RH  100%=      5-min Rain = 0
KSVS 231310Z 02013KT 12/12 A3007 RMK A01 T01230117  RH  100%=      5-min Rain = 0
KSVS 231315Z 02013KT 12/12 A3007 RMK A01 T01230117  RH  100%=      5-min Rain = 0
KSVS 231320Z 02010G15KT 12/12 A3008 RMK A01 T01230118  RH  100%=      5-min Rain = 0
KSVS 231325Z 02010KT 12/12 A3009 RMK A01 T01240118  RH  100%=      5-min Rain = 0
KSVS 231330Z 03009KT 12/12 A3009 RMK A01 T01230117  RH  100%=      5-min Rain = 0
KSVS 231335Z 03009KT 12/12 A3009 RMK A01 T01230117  RH  100%=      5-min Rain = 0
KSVS 231340Z 04010KT 12/12 A3009 RMK A01 T01230118  RH  100%=      5-min Rain = 0
KSVS 231345Z 03010KT 12/12 A3009 RMK A01 T01230118  RH  100%=      5-min Rain = 0
KSVS 231350Z 02009KT 12/12 A3009 RMK A01 T01230118  RH  100%=      5-min Rain = 0
KSVS 231355Z 02008KT 12/12 A3009 RMK A01 T01230118  RH  100%=      5-min Rain = 0
KSVS 231400Z 02009KT 12/12 A3009 RMK A01 T01230117  RH  100%=      5-min Rain = 0
KSVS 231405Z 01009KT 12/12 A301 RMK A01 T01220117  RH  100%=      5-min Rain = 0
KSVS 231410Z 01010KT 12/12 A301 RMK A01 T01210116  RH  100%=      5-min Rain = 0
KSVS 231415Z 02009G16KT 12/12 A301 RMK A01 T01210116  RH  100%=      5-min Rain = 0.01
KSVS 231420Z 01012G17KT 12/11 A301 RMK A01 T01190113  RH  100%=      5-min Rain = 0.05
KSVS 231425Z 01013KT 12/11 A3009 RMK A01 T01180113  RH  100%=      5-min Rain = 0.01
KSVS 231430Z 00013KT 12/11 A3009 RMK A01 T01170112  RH  100%=      5-min Rain = 0
KSVS 231435Z 00014KT 12/11 A3009 RMK A01 T01170112  RH  100%=      5-min Rain = 0.01
KSVS 231440Z 01015KT 12/11 A3008 RMK A01 T01170112  RH  100%=      5-min Rain = 0
KSVS 231445Z 02016G21KT 12/11 A3007 RMK A01 T01170112  RH  100%=      5-min Rain = 0
KSVS 231450Z 03016G21KT 12/11 A3008 RMK A01 T01170111  RH  100%=      5-min Rain = 0.01
KSVS 231455Z 03012G17KT 12/11 A3009 RMK A01 T01170112  RH  100%=      5-min Rain = 0
KSVS 231500Z 03014KT 12/11 A3009 RMK A01 T01170111  RH  100%=      5-min Rain = 0
KSVS 231505Z 03014G20KT 12/11 A3009 RMK A01 T01160111  RH  100%=      5-min Rain = 0
KSVS 231510Z 03015KT 12/11 A3009 RMK A01 T01150109  RH  100%=      5-min Rain = 0
KSVS 231515Z 03015KT 11/11 A3009 RMK A01 T01140109  RH  100%=      5-min Rain = 0
KSVS 231520Z 03014G19KT 11/11 A3009 RMK A01 T01140109  RH  100%=      5-min Rain = 0
KSVS 231525Z 03014KT 11/11 A3009 RMK A01 T01140109  RH  100%=      5-min Rain = 0
KSVS 231530Z 03015KT 11/11 A3009 RMK A01 T01130108  RH  100%=      5-min Rain = 0
KSVS 231535Z 03015G20KT 11/11 A301 RMK A01 T01110106  RH  100%=      5-min Rain = 0
KSVS 231540Z 03014G19KT 11/10 A301 RMK A01 T01090104  RH  100%=      5-min Rain = 0
KSVS 231545Z 02015KT 11/11 A301 RMK A01 T01100105  RH  100%=      5-min Rain = 0
KSVS 231550Z 03016KT 11/10 A301 RMK A01 T01090104  RH  100%=      5-min Rain = 0
KSVS 231555Z 03012G17KT 11/11 A301 RMK A01 T01100105  RH  100%=      5-min Rain = 0
KSVS 231600Z 03011G16KT 11/11 A3011 RMK A01 T01110106  RH  100%=      5-min Rain = 0
KSVS 231605Z 02013KT 11/10 A3011 RMK A01 T01090104  RH  100%=      5-min Rain = 0
KSVS 231610Z 02012KT 11/10 A3012 RMK A01 T01070102  RH  100%=      5-min Rain = 0
KSVS 231615Z 02012G17KT 11/10 A3012 RMK A01 T01080103  RH  100%=      5-min Rain = 0
KSVS 231620Z 03012KT 11/10 A3012 RMK A01 T01070102  RH  100%=      5-min Rain = 0
KSVS 231625Z 03011KT 11/10 A3012 RMK A01 T01070102  RH  100%=      5-min Rain = 0
KSVS 231630Z 04013KT 11/10 A3012 RMK A01 T01070102  RH  100%=      5-min Rain = 0
KSVS 231635Z 04013KT 11/10 A3012 RMK A01 T01080103  RH  100%=      5-min Rain = 0
KSVS 231640Z 03013KT 11/10 A3012 RMK A01 T01090104  RH  100%=      5-min Rain = 0
KSVS 231645Z 04012KT 11/11 A3012 RMK A01 T01110106  RH  100%=      5-min Rain = 0
KSVS 231650Z 03012KT 11/11 A3012 RMK A01 T01120107  RH  100%=      5-min Rain = 0
KSVS 231655Z 03012KT 11/11 A3012 RMK A01 T01110106  RH  100%=      5-min Rain = 0
KSVS 231700Z 03011KT 11/11 A3012 RMK A01 T01110106  RH  100%=      5-min Rain = 0
KSVS 231705Z 04012G18KT 11/11 A3011 RMK A01 T01120106  RH  100%=      5-min Rain = 0
KSVS 231710Z 04013KT 11/11 A3011 RMK A01 T01120107  RH  100%=      5-min Rain = 0
KSVS 231715Z 04013KT 12/11 A3011 RMK A01 T01180113  RH  100%=      5-min Rain = 0
KSVS 231720Z 03013G18KT 12/11 A301 RMK A01 T01190114  RH  100%=      5-min Rain = 0
KSVS 231725Z 03014KT 12/12 A301 RMK A01 T01200115  RH  100%=      5-min Rain = 0
KSVS 231730Z 03014KT 12/11 A301 RMK A01 T01190113  RH  100%=      5-min Rain = 0
KSVS 231735Z 02014G20KT 12/11 A3009 RMK A01 T01150110  RH  100%=      5-min Rain = 0
KSVS 231740Z 02018KT 12/11 A3009 RMK A01 T01150109  RH  100%=      5-min Rain = 0
KSVS 231745Z 02016G21KT 12/11 A3009 RMK A01 T01150110  RH  100%=      5-min Rain = 0
KSVS 231750Z 02016KT 11/11 A3009 RMK A01 T01120107  RH  100%=      5-min Rain = 0
KSVS 231755Z 03016KT 11/11 A3008 RMK A01 T01130108  RH  100%=      5-min Rain = 0
KSVS 231800Z 03016KT 11/11 A3008 RMK A01 T01140109  RH  100%=      5-min Rain = 0
KSVS 231805Z 03015KT 11/11 A3008 RMK A01 T01140109  RH  100%=      5-min Rain = 0
KSVS 231810Z 03014KT 12/11 A3008 RMK A01 T01180112  RH  100%=      5-min Rain = 0
KSVS 231815Z 02014KT 12/11 A3008 RMK A01 T01190113  RH  099%=      5-min Rain = 0
KSVS 231820Z 02014KT 12/11 A3008 RMK A01 T01180109  RH  098%=      5-min Rain = 0
KSVS 231825Z 03015KT 12/11 A3008 RMK A01 T01150105  RH  097%=      5-min Rain = 0
KSVS 231830Z 03012KT 12/11 A3008 RMK A01 T01160107  RH  098%=      5-min Rain = 0
KSVS 231835Z 03011KT 12/11 A3009 RMK A01 T01170108  RH  097%=      5-min Rain = 0
KSVS 231840Z 02013KT 12/10 A3009 RMK A01 T01160104  RH  095%=      5-min Rain = 0
KSVS 231845Z 01011G16KT 12/11 A3009 RMK A01 T01180105  RH  095%=      5-min Rain = 0
KSVS 231850Z 01013KT 12/10 A3009 RMK A01 T01190102  RH  092%=      5-min Rain = 0
KSVS 231855Z 01012KT 12/10 A3008 RMK A01 T01210103  RH  092%=      5-min Rain = 0
KSVS 231900Z 02013KT 12/10 A3008 RMK A01 T01200100  RH  091%=      5-min Rain = 0
KSVS 231905Z 02013KT 12/10 A3008 RMK A01 T01210100  RH  090%=      5-min Rain = 0
KSVS 231910Z 02012KT 12/10 A3008 RMK A01 T01210099  RH  089%=      5-min Rain = 0
KSVS 231915Z 02012KT 12/10 A3008 RMK A01 T01240101  RH  089%=      5-min Rain = 0
KSVS 231920Z 01012KT 13/10 A3008 RMK A01 T01270102  RH  088%=      5-min Rain = 0
KSVS 231925Z 02012KT 13/10 A3008 RMK A01 T01300102  RH  086%=      5-min Rain = 0
KSVS 231930Z 02014KT 13/10 A3008 RMK A01 T01300100  RH  085%=      5-min Rain = 0
KSVS 231935Z 01013KT 13/10 A3008 RMK A01 T01310103  RH  086%=      5-min Rain = 0
KSVS 231940Z 01012KT 13/10 A3008 RMK A01 T01300104  RH  087%=      5-min Rain = 0
KSVS 231945Z 01012KT 13/10 A3008 RMK A01 T01280104  RH  088%=      5-min Rain = 0
KSVS 231950Z 02012G17KT 14/11 A3008 RMK A01 T01360105  RH  084%=      5-min Rain = 0
KSVS 231955Z 02011G16KT 14/10 A3008 RMK A01 T01350101  RH  082%=      5-min Rain = 0
KSVS 232000Z 02011KT 14/10 A3008 RMK A01 T01370100  RH  081%=      5-min Rain = 0
KSVS 232005Z 03011KT 14/10 A3008 RMK A01 T01400099  RH  079%=      5-min Rain = 0
KSVS 232010Z 02010KT 14/10 A3008 RMK A01 T01420098  RH  077%=      5-min Rain = 0
KSVS 232015Z 02010KT 14/09 A3008 RMK A01 T01380094  RH  077%=      5-min Rain = 0
KSVS 232020Z 01010KT 14/09 A3008 RMK A01 T01400092  RH  075%=      5-min Rain = 0
KSVS 232025Z 01010KT 14/09 A3008 RMK A01 T01440094  RH  074%=      5-min Rain = 0
KSVS 232030Z 01008KT 14/09 A3008 RMK A01 T01420091  RH  074%=      5-min Rain = 0
KSVS 232035Z 02008G13KT 14/09 A3008 RMK A01 T01430089  RH  072%=      5-min Rain = 0
KSVS 232040Z 01007KT 15/09 A3008 RMK A01 T01460089  RH  071%=      5-min Rain = 0
KSVS 232045Z 01008KT 14/09 A3007 RMK A01 T01440088  RH  071%=      5-min Rain = 0
KSVS 232050Z 02007KT 14/09 A3007 RMK A01 T01440087  RH  071%=      5-min Rain = 0
KSVS 232055Z 02008KT 14/09 A3007 RMK A01 T01430085  RH  070%=      5-min Rain = 0
KSVS 232100Z 01006KT 14/09 A3007 RMK A01 T01410085  RH  071%=      5-min Rain = 0
KSVS 232105Z 02005KT 14/09 A3007 RMK A01 T01410085  RH  071%=      5-min Rain = 0
KSVS 232110Z 02006G11KT 14/09 A3007 RMK A01 T01430087  RH  071%=      5-min Rain = 0
KSVS 232115Z 03006KT 14/09 A3007 RMK A01 T01430085  RH  070%=      5-min Rain = 0
KSVS 232120Z 02006KT 14/09 A3007 RMK A01 T01430086  RH  070%=      5-min Rain = 0
KSVS 232125Z 04005KT 15/09 A3006 RMK A01 T01460088  RH  070%=      5-min Rain = 0
KSVS 232130Z 04006KT 15/09 A3006 RMK A01 T01490091  RH  070%=      5-min Rain = 0
KSVS 232135Z 03006KT 15/09 A3006 RMK A01 T01460087  RH  070%=      5-min Rain = 0
KSVS 232140Z 04005KT 15/09 A3006 RMK A01 T01450087  RH  070%=      5-min Rain = 0
KSVS 232145Z 01005KT 15/09 A3006 RMK A01 T01460086  RH  069%=      5-min Rain = 0
KSVS 232150Z 05005KT 15/09 A3006 RMK A01 T01480090  RH  070%=      5-min Rain = 0
KSVS 232155Z 04005KT 15/09 A3006 RMK A01 T01480089  RH  070%=      5-min Rain = 0
KSVS 232200Z 04007KT 15/09 A3006 RMK A01 T01490089  RH  069%=      5-min Rain = 0
KSVS 232205Z 03007KT 15/09 A3006 RMK A01 T01470087  RH  069%=      5-min Rain = 0
KSVS 232210Z 04006KT 15/09 A3005 RMK A01 T01480087  RH  068%=      5-min Rain = 0
KSVS 232215Z 03005KT 15/09 A3005 RMK A01 T01480087  RH  069%=      5-min Rain = 0
KSVS 232220Z 01006KT 15/09 A3005 RMK A01 T01490087  RH  068%=      5-min Rain = 0
KSVS 232225Z 02008KT 15/09 A3005 RMK A01 T01490088  RH  069%=      5-min Rain = 0
KSVS 232230Z 01007KT 15/09 A3005 RMK A01 T01480088  RH  069%=      5-min Rain = 0
KSVS 232235Z 02009KT 15/09 A3005 RMK A01 T01500088  RH  068%=      5-min Rain = 0
KSVS 232240Z 01008KT 15/09 A3004 RMK A01 T01490087  RH  068%=      5-min Rain = 0
KSVS 232245Z 01009KT 15/09 A3004 RMK A01 T01480087  RH  069%=      5-min Rain = 0
KSVS 232250Z 01009KT 15/09 A3004 RMK A01 T01490087  RH  069%=      5-min Rain = 0
KSVS 232255Z 01009KT 15/09 A3004 RMK A01 T01490090  RH  070%=      5-min Rain = 0
KSVS 232300Z 00008KT 15/09 A3004 RMK A01 T01490091  RH  070%=      5-min Rain = 0
KSVS 232305Z 01009KT 15/09 A3004 RMK A01 T01500091  RH  070%=      5-min Rain = 0
KSVS 232310Z 36010KT 15/09 A3004 RMK A01 T01490090  RH  070%=      5-min Rain = 0
KSVS 232315Z 01009KT 15/09 A3004 RMK A01 T01490090  RH  070%=      5-min Rain = 0
KSVS 232320Z 01010KT 15/09 A3004 RMK A01 T01480089  RH  070%=      5-min Rain = 0
KSVS 232325Z 01010KT 15/09 A3004 RMK A01 T01470089  RH  070%=      5-min Rain = 0
KSVS 232330Z 02010KT 15/09 A3003 RMK A01 T01470089  RH  071%=      5-min Rain = 0
KSVS 232335Z 01008KT 15/09 A3003 RMK A01 T01460090  RH  071%=      5-min Rain = 0
KSVS 232340Z 00009KT 15/09 A3003 RMK A01 T01460091  RH  072%=      5-min Rain = 0
KSVS 232345Z 36009KT 15/09 A3004 RMK A01 T01450091  RH  072%=      5-min Rain = 0
KSVS 232350Z 35009KT 14/09 A3004 RMK A01 T01440090  RH  072%=      5-min Rain = 0
KSVS 232355Z 35009KT 14/09 A3004 RMK A01 T01430091  RH  073%=      5-min Rain = 0
KSVS 240000Z 00009KT 14/09 A3004 RMK A01 T01430091  RH  073%=      5-min Rain = 0
KSVS 240005Z 01009KT 14/09 A3004 RMK A01 T01440092  RH  073%=      5-min Rain = 0
KSVS 240010Z 01007KT 14/09 A3004 RMK A01 T01440094  RH  074%=      5-min Rain = 0
KSVS 240015Z 02006KT 14/09 A3004 RMK A01 T01440094  RH  074%=      5-min Rain = 0
KSVS 240020Z 02005KT 14/09 A3004 RMK A01 T01440094  RH  074%=      5-min Rain = 0
KSVS 240025Z 01006KT 15/09 A3004 RMK A01 T01450093  RH  073%=      5-min Rain = 0
KSVS 240030Z 01007KT 14/09 A3003 RMK A01 T01440092  RH  073%=      5-min Rain = 0
KSVS 240035Z 01007KT 15/09 A3003 RMK A01 T01450094  RH  073%=      5-min Rain = 0
KSVS 240040Z 36008KT 15/09 A3003 RMK A01 T01480094  RH  072%=      5-min Rain = 0
KSVS 240045Z 00009KT 15/09 A3002 RMK A01 T01460094  RH  073%=      5-min Rain = 0
KSVS 240050Z 01009KT 14/09 A3002 RMK A01 T01440092  RH  073%=      5-min Rain = 0
KSVS 240055Z 01007KT 14/09 A3002 RMK A01 T01420092  RH  074%=      5-min Rain = 0
KSVS 240100Z 01007KT 14/09 A3002 RMK A01 T01400093  RH  075%=      5-min Rain = 0
KSVS 240105Z 01006KT 14/09 A3002 RMK A01 T01370092  RH  077%=      5-min Rain = 0
KSVS 240110Z 01005KT 13/09 A3002 RMK A01 T01320091  RH  079%=      5-min Rain = 0
KSVS 240115Z 01005KT 13/09 A3002 RMK A01 T01280091  RH  081%=      5-min Rain = 0
KSVS 240120Z 02006KT 12/09 A3003 RMK A01 T01240091  RH  083%=      5-min Rain = 0
KSVS 240125Z 02007KT 12/09 A3003 RMK A01 T01220093  RH  085%=      5-min Rain = 0
KSVS 240130Z 01006KT 12/09 A3003 RMK A01 T01220093  RH  085%=      5-min Rain = 0
KSVS 240135Z 01007KT 12/09 A3004 RMK A01 T01200094  RH  087%=      5-min Rain = 0
KSVS 240140Z 01008KT 12/09 A3004 RMK A01 T01210091  RH  084%=      5-min Rain = 0
KSVS 240145Z 02007KT 12/08 A3004 RMK A01 T01200081  RH  079%=      5-min Rain = 0
KSVS 240150Z 02007KT 12/08 A3004 RMK A01 T01170078  RH  079%=      5-min Rain = 0
KSVS 240155Z 02008KT 11/08 A3004 RMK A01 T01130076  RH  080%=      5-min Rain = 0
KSVS 240200Z 02008KT 11/08 A3004 RMK A01 T01080075  RH  082%=      5-min Rain = 0
KSVS 240205Z 01008KT 11/08 A3004 RMK A01 T01050075  RH  084%=      5-min Rain = 0
KSVS 240210Z 01007KT 10/07 A3004 RMK A01 T01030074  RH  084%=      5-min Rain = 0
KSVS 240215Z 01006KT 10/07 A3004 RMK A01 T01010073  RH  085%=      5-min Rain = 0
KSVS 240220Z 01004KT 10/07 A3005 RMK A01 T01010072  RH  084%=      5-min Rain = 0
KSVS 240225Z 36005KT 10/07 A3004 RMK A01 T01000070  RH  084%=      5-min Rain = 0
KSVS 240230Z 36007KT 10/07 A3004 RMK A01 T00980072  RH  086%=      5-min Rain = 0
KSVS 240235Z 35007KT 10/07 A3003 RMK A01 T00960072  RH  088%=      5-min Rain = 0
KSVS 240240Z 35009KT 10/07 A3003 RMK A01 T00990074  RH  087%=      5-min Rain = 0
KSVS 240245Z 36009KT 11/07 A3003 RMK A01 T01050073  RH  082%=      5-min Rain = 0
KSVS 240250Z 36010KT 11/07 A3004 RMK A01 T01070071  RH  080%=      5-min Rain = 0
KSVS 240255Z 36009KT 11/07 A3004 RMK A01 T01080069  RH  079%=      5-min Rain = 0
KSVS 240300Z 00008KT 11/07 A3004 RMK A01 T01070067  RH  078%=      5-min Rain = 0
KSVS 240305Z 01007KT 11/07 A3005 RMK A01 T01060065  RH  078%=      5-min Rain = 0
KSVS 240310Z 02006KT 10/06 A3005 RMK A01 T01030064  RH  078%=      5-min Rain = 0
KSVS 240315Z 02006KT 10/06 A3006 RMK A01 T01010063  RH  079%=      5-min Rain = 0
KSVS 240320Z 02006KT 10/06 A3006 RMK A01 T00970063  RH  081%=      5-min Rain = 0
KSVS 240325Z 02007KT 09/06 A3006 RMK A01 T00940062  RH  082%=      5-min Rain = 0
KSVS 240330Z 02007KT 09/06 A3005 RMK A01 T00930061  RH  082%=      5-min Rain = 0
KSVS 240335Z 02007KT 09/06 A3004 RMK A01 T00920061  RH  083%=      5-min Rain = 0
KSVS 240340Z 01007KT 09/06 A3004 RMK A01 T00920061  RH  083%=      5-min Rain = 0
KSVS 240345Z 02007KT 09/06 A3004 RMK A01 T00910061  RH  084%=      5-min Rain = 0
KSVS 240350Z 02007KT 09/06 A3004 RMK A01 T00920061  RH  083%=      5-min Rain = 0
KSVS 240355Z 03007KT 09/06 A3004 RMK A01 T00910061  RH  084%=      5-min Rain = 0
KSVS 240400Z 05007KT 09/06 A3005 RMK A01 T00920063  RH  084%=      5-min Rain = 0
KSVS 240405Z 06006KT 09/07 A3005 RMK A01 T00940065  RH  084%=      5-min Rain = 0
KSVS 240410Z 06006KT 09/07 A3005 RMK A01 T00940067  RH  085%=      5-min Rain = 0
KSVS 240415Z 04004KT 09/07 A3005 RMK A01 T00940067  RH  085%=      5-min Rain = 0
KSVS 240420Z 02004KT 09/06 A3005 RMK A01 T00860061  RH  086%=      5-min Rain = 0
KSVS 240425Z 00006KT 08/06 A3005 RMK A01 T00770057  RH  089%=      5-min Rain = 0
KSVS 240430Z 01005KT 08/06 A3006 RMK A01 T00770060  RH  091%=      5-min Rain = 0
KSVS 240435Z 08005KT 08/06 A3007 RMK A01 T00770060  RH  091%=      5-min Rain = 0
KSVS 240440Z 06004KT 08/06 A3007 RMK A01 T00790064  RH  093%=      5-min Rain = 0
KSVS 240445Z 03004KT 08/07 A3006 RMK A01 T00790065  RH  093%=      5-min Rain = 0
KSVS 240450Z 05004KT 08/07 A3007 RMK A01 T00780065  RH  094%=      5-min Rain = 0
KSVS 240455Z 04005KT 08/07 A3006 RMK A01 T00830069  RH  094%=      5-min Rain = 0

Page generated in 0.015 seconds.